sensor_id;sensor_type;location;lat;lon;timestamp;temperature;humidity
41928;DHT22;27616;51.420;6.788;2022-12-05T00:01:34;2.40;99.90
41928;DHT22;27616;51.420;6.788;2022-12-05T00:04:03;2.40;99.90
41928;DHT22;27616;51.420;6.788;2022-12-05T00:06:30;2.40;99.90
41928;DHT22;27616;51.420;6.788;2022-12-05T00:08:56;2.40;99.90
41928;DHT22;27616;51.420;6.788;2022-12-05T00:11:25;2.50;99.90
41928;DHT22;27616;51.420;6.788;2022-12-05T00:13:53;2.50;99.90
41928;DHT22;27616;51.420;6.788;2022-12-05T00:16:21;2.50;99.90
41928;DHT22;27616;51.420;6.788;2022-12-05T00:18:47;2.50;99.90
41928;DHT22;27616;51.420;6.788;2022-12-05T00:21:16;2.50;99.90
41928;DHT22;27616;51.420;6.788;2022-12-05T00:23:42;2.40;99.90
41928;DHT22;27616;51.420;6.788;2022-12-05T00:26:08;2.50;99.90
41928;DHT22;27616;51.420;6.788;2022-12-05T00:28:34;2.40;99.90
41928;DHT22;27616;51.420;6.788;2022-12-05T00:31:20;2.40;99.90
41928;DHT22;27616;51.420;6.788;2022-12-05T00:33:47;2.40;99.90
41928;DHT22;27616;51.420;6.788;2022-12-05T00:36:16;2.50;99.90
41928;DHT22;27616;51.420;6.788;2022-12-05T00:38:42;2.50;99.90
41928;DHT22;27616;51.420;6.788;2022-12-05T00:41:17;2.50;99.90
41928;DHT22;27616;51.420;6.788;2022-12-05T00:43:43;2.50;99.90
41928;DHT22;27616;51.420;6.788;2022-12-05T00:46:13;2.50;99.90
41928;DHT22;27616;51.420;6.788;2022-12-05T00:48:39;2.40;99.90
41928;DHT22;27616;51.420;6.788;2022-12-05T00:53:33;2.50;99.90
41928;DHT22;27616;51.420;6.788;2022-12-05T00:56:08;2.50;99.90
41928;DHT22;27616;51.420;6.788;2022-12-05T00:58:34;2.50;99.90
41928;DHT22;27616;51.420;6.788;2022-12-05T01:03:32;2.50;99.90
41928;DHT22;27616;51.420;6.788;2022-12-05T01:05:58;2.50;99.90
41928;DHT22;27616;51.420;6.788;2022-12-05T01:08:24;2.50;99.90
41928;DHT22;27616;51.420;6.788;2022-12-05T01:10:54;2.50;99.90
41928;DHT22;27616;51.420;6.788;2022-12-05T01:13:21;2.50;99.90
41928;DHT22;27616;51.420;6.788;2022-12-05T01:15:47;2.60;99.90
41928;DHT22;27616;51.420;6.788;2022-12-05T01:18:13;2.60;99.90
41928;DHT22;27616;51.420;6.788;2022-12-05T01:20:39;2.60;99.90
41928;DHT22;27616;51.420;6.788;2022-12-05T01:23:05;2.60;99.90
41928;DHT22;27616;51.420;6.788;2022-12-05T01:25:32;2.70;99.90
41928;DHT22;27616;51.420;6.788;2022-12-05T01:27:58;2.70;99.90
41928;DHT22;27616;51.420;6.788;2022-12-05T01:30:23;2.60;99.90
41928;DHT22;27616;51.420;6.788;2022-12-05T01:32:50;2.50;99.90
41928;DHT22;27616;51.420;6.788;2022-12-05T01:35:15;2.60;99.90
41928;DHT22;27616;51.420;6.788;2022-12-05T01:37:41;2.50;99.90
41928;DHT22;27616;51.420;6.788;2022-12-05T01:40:07;2.50;99.90
41928;DHT22;27616;51.420;6.788;2022-12-05T01:42:34;2.50;99.90
41928;DHT22;27616;51.420;6.788;2022-12-05T01:45:07;2.50;99.90
41928;DHT22;27616;51.420;6.788;2022-12-05T01:47:37;2.60;99.90
41928;DHT22;27616;51.420;6.788;2022-12-05T01:50:03;2.60;99.90
41928;DHT22;27616;51.420;6.788;2022-12-05T01:52:31;2.60;99.90
41928;DHT22;27616;51.420;6.788;2022-12-05T01:55:02;2.60;99.90
41928;DHT22;27616;51.420;6.788;2022-12-05T01:57:29;2.50;99.90
41928;DHT22;27616;51.420;6.788;2022-12-05T02:00:01;2.60;99.90
41928;DHT22;27616;51.420;6.788;2022-12-05T02:02:39;2.60;99.90
41928;DHT22;27616;51.420;6.788;2022-12-05T02:05:16;2.60;99.90
41928;DHT22;27616;51.420;6.788;2022-12-05T02:07:43;2.60;99.90
41928;DHT22;27616;51.420;6.788;2022-12-05T02:10:10;2.60;99.90
41928;DHT22;27616;51.420;6.788;2022-12-05T02:12:36;2.60;99.90
41928;DHT22;27616;51.420;6.788;2022-12-05T02:15:18;2.60;99.90
41928;DHT22;27616;51.420;6.788;2022-12-05T02:23:18;2.60;99.90
41928;DHT22;27616;51.420;6.788;2022-12-05T02:31:46;2.60;99.90
41928;DHT22;27616;51.420;6.788;2022-12-05T02:34:30;2.60;99.90
41928;DHT22;27616;51.420;6.788;2022-12-05T02:37:04;2.60;99.90
41928;DHT22;27616;51.420;6.788;2022-12-05T02:39:42;2.60;99.90
41928;DHT22;27616;51.420;6.788;2022-12-05T02:42:17;2.60;99.90
41928;DHT22;27616;51.420;6.788;2022-12-05T02:44:51;2.60;99.90
41928;DHT22;27616;51.420;6.788;2022-12-05T02:47:20;2.60;99.90
41928;DHT22;27616;51.420;6.788;2022-12-05T02:49:47;2.60;99.90
41928;DHT22;27616;51.420;6.788;2022-12-05T02:52:15;2.60;99.90
41928;DHT22;27616;51.420;6.788;2022-12-05T02:54:45;2.60;99.90
41928;DHT22;27616;51.420;6.788;2022-12-05T02:57:13;2.50;99.90
41928;DHT22;27616;51.420;6.788;2022-12-05T02:59:39;2.50;99.90
41928;DHT22;27616;51.420;6.788;2022-12-05T03:02:07;2.50;99.90
41928;DHT22;27616;51.420;6.788;2022-12-05T03:04:34;2.60;99.90
41928;DHT22;27616;51.420;6.788;2022-12-05T03:07:03;2.60;99.90
41928;DHT22;27616;51.420;6.788;2022-12-05T03:09:50;2.60;99.90
41928;DHT22;27616;51.420;6.788;2022-12-05T03:12:27;2.60;99.90
41928;DHT22;27616;51.420;6.788;2022-12-05T03:15:02;2.60;99.90
41928;DHT22;27616;51.420;6.788;2022-12-05T03:17:42;2.70;99.90
41928;DHT22;27616;51.420;6.788;2022-12-05T03:22:43;2.70;99.90
41928;DHT22;27616;51.420;6.788;2022-12-05T03:25:11;2.70;99.90
41928;DHT22;27616;51.420;6.788;2022-12-05T03:28:02;2.70;99.90
41928;DHT22;27616;51.420;6.788;2022-12-05T03:30:31;2.60;99.90
41928;DHT22;27616;51.420;6.788;2022-12-05T03:33:13;2.60;99.90
41928;DHT22;27616;51.420;6.788;2022-12-05T03:35:58;2.60;99.90
41928;DHT22;27616;51.420;6.788;2022-12-05T03:43:57;2.50;99.90
41928;DHT22;27616;51.420;6.788;2022-12-05T03:51:52;2.40;99.90
41928;DHT22;27616;51.420;6.788;2022-12-05T03:54:22;2.40;99.90
41928;DHT22;27616;51.420;6.788;2022-12-05T03:57:04;2.40;99.90
41928;DHT22;27616;51.420;6.788;2022-12-05T03:59:54;2.40;99.90
41928;DHT22;27616;51.420;6.788;2022-12-05T04:02:25;2.40;99.90
41928;DHT22;27616;51.420;6.788;2022-12-05T04:05:09;2.50;99.90
41928;DHT22;27616;51.420;6.788;2022-12-05T04:07:38;2.40;99.90
41928;DHT22;27616;51.420;6.788;2022-12-05T04:10:11;2.40;99.90
41928;DHT22;27616;51.420;6.788;2022-12-05T04:12:40;2.40;99.90
41928;DHT22;27616;51.420;6.788;2022-12-05T04:15:13;2.50;99.90
41928;DHT22;27616;51.420;6.788;2022-12-05T04:20:38;2.60;99.90
41928;DHT22;27616;51.420;6.788;2022-12-05T04:23:25;2.60;99.90
41928;DHT22;27616;51.420;6.788;2022-12-05T04:26:06;2.50;99.90
41928;DHT22;27616;51.420;6.788;2022-12-05T04:28:38;2.60;99.90
41928;DHT22;27616;51.420;6.788;2022-12-05T04:31:16;2.60;99.90
41928;DHT22;27616;51.420;6.788;2022-12-05T04:33:54;2.60;99.90
41928;DHT22;27616;51.420;6.788;2022-12-05T04:39:30;2.60;99.90
41928;DHT22;27616;51.420;6.788;2022-12-05T04:42:08;2.60;99.90
41928;DHT22;27616;51.420;6.788;2022-12-05T04:44:42;2.50;99.90
41928;DHT22;27616;51.420;6.788;2022-12-05T04:47:10;2.60;99.90
41928;DHT22;27616;51.420;6.788;2022-12-05T04:49:37;2.60;99.90
41928;DHT22;27616;51.420;6.788;2022-12-05T04:52:08;2.60;99.90
41928;DHT22;27616;51.420;6.788;2022-12-05T04:54:55;2.60;99.90
41928;DHT22;27616;51.420;6.788;2022-12-05T04:57:33;2.60;99.90
41928;DHT22;27616;51.420;6.788;2022-12-05T05:00:00;2.70;99.90
41928;DHT22;27616;51.420;6.788;2022-12-05T05:02:41;2.60;99.90
41928;DHT22;27616;51.420;6.788;2022-12-05T05:05:10;2.70;99.90
41928;DHT22;27616;51.420;6.788;2022-12-05T05:07:45;2.70;99.90
41928;DHT22;27616;51.420;6.788;2022-12-05T05:10:15;2.70;99.90
41928;DHT22;27616;51.420;6.788;2022-12-05T05:12:42;2.70;99.90
41928;DHT22;27616;51.420;6.788;2022-12-05T05:15:08;2.70;99.90
41928;DHT22;27616;51.420;6.788;2022-12-05T05:17:34;2.70;99.90
41928;DHT22;27616;51.420;6.788;2022-12-05T05:20:00;2.70;99.90
41928;DHT22;27616;51.420;6.788;2022-12-05T05:22:47;2.70;99.90
41928;DHT22;27616;51.420;6.788;2022-12-05T05:25:12;2.70;99.90
41928;DHT22;27616;51.420;6.788;2022-12-05T05:27:38;2.60;99.90
41928;DHT22;27616;51.420;6.788;2022-12-05T05:30:04;2.60;99.90
41928;DHT22;27616;51.420;6.788;2022-12-05T05:32:31;2.60;99.90
41928;DHT22;27616;51.420;6.788;2022-12-05T05:34:57;2.50;99.90
41928;DHT22;27616;51.420;6.788;2022-12-05T05:37:23;2.60;99.90
41928;DHT22;27616;51.420;6.788;2022-12-05T05:39:49;2.60;99.90
41928;DHT22;27616;51.420;6.788;2022-12-05T05:42:14;2.60;99.90
41928;DHT22;27616;51.420;6.788;2022-12-05T05:44:40;2.60;99.90
41928;DHT22;27616;51.420;6.788;2022-12-05T05:47:06;2.60;99.90
41928;DHT22;27616;51.420;6.788;2022-12-05T05:49:31;2.60;99.90
41928;DHT22;27616;51.420;6.788;2022-12-05T05:51:57;2.60;99.90
41928;DHT22;27616;51.420;6.788;2022-12-05T05:54:23;2.60;99.90
41928;DHT22;27616;51.420;6.788;2022-12-05T05:56:48;2.60;99.90
41928;DHT22;27616;51.420;6.788;2022-12-05T05:59:14;2.60;99.90
41928;DHT22;27616;51.420;6.788;2022-12-05T06:01:40;2.60;99.90
41928;DHT22;27616;51.420;6.788;2022-12-05T06:04:05;2.60;99.90
41928;DHT22;27616;51.420;6.788;2022-12-05T06:06:32;2.60;99.90
41928;DHT22;27616;51.420;6.788;2022-12-05T06:08:58;2.60;99.90
41928;DHT22;27616;51.420;6.788;2022-12-05T06:11:25;2.60;99.90
41928;DHT22;27616;51.420;6.788;2022-12-05T06:13:52;2.50;99.90
41928;DHT22;27616;51.420;6.788;2022-12-05T06:16:19;2.60;99.90
41928;DHT22;27616;51.420;6.788;2022-12-05T06:18:45;2.60;99.90
41928;DHT22;27616;51.420;6.788;2022-12-05T06:21:11;2.60;99.90
41928;DHT22;27616;51.420;6.788;2022-12-05T06:23:38;2.60;99.90
41928;DHT22;27616;51.420;6.788;2022-12-05T06:26:05;2.60;99.90
41928;DHT22;27616;51.420;6.788;2022-12-05T06:28:31;2.60;99.90
41928;DHT22;27616;51.420;6.788;2022-12-05T06:30:57;2.60;99.90
41928;DHT22;27616;51.420;6.788;2022-12-05T06:33:23;2.50;99.90
41928;DHT22;27616;51.420;6.788;2022-12-05T06:36:00;2.50;99.90
41928;DHT22;27616;51.420;6.788;2022-12-05T06:38:26;2.50;99.90
41928;DHT22;27616;51.420;6.788;2022-12-05T06:40:52;2.50;99.90
41928;DHT22;27616;51.420;6.788;2022-12-05T06:43:17;2.50;99.90
41928;DHT22;27616;51.420;6.788;2022-12-05T06:45:43;2.50;99.90
41928;DHT22;27616;51.420;6.788;2022-12-05T06:48:09;2.50;99.90
41928;DHT22;27616;51.420;6.788;2022-12-05T06:50:34;2.50;99.90
41928;DHT22;27616;51.420;6.788;2022-12-05T06:53:00;2.40;99.90
41928;DHT22;27616;51.420;6.788;2022-12-05T06:55:26;2.40;99.90
41928;DHT22;27616;51.420;6.788;2022-12-05T06:57:51;2.40;99.90
41928;DHT22;27616;51.420;6.788;2022-12-05T07:00:17;2.40;99.90
41928;DHT22;27616;51.420;6.788;2022-12-05T07:03:02;2.40;99.90
41928;DHT22;27616;51.420;6.788;2022-12-05T07:05:27;2.40;99.90
41928;DHT22;27616;51.420;6.788;2022-12-05T07:07:53;2.40;99.90
41928;DHT22;27616;51.420;6.788;2022-12-05T07:10:20;2.40;99.90
41928;DHT22;27616;51.420;6.788;2022-12-05T07:12:46;2.40;99.90
41928;DHT22;27616;51.420;6.788;2022-12-05T07:15:11;2.40;99.90
41928;DHT22;27616;51.420;6.788;2022-12-05T07:17:38;2.30;99.90
41928;DHT22;27616;51.420;6.788;2022-12-05T07:20:06;2.30;99.90
41928;DHT22;27616;51.420;6.788;2022-12-05T07:22:34;2.40;99.90
41928;DHT22;27616;51.420;6.788;2022-12-05T07:25:00;2.40;99.90
41928;DHT22;27616;51.420;6.788;2022-12-05T07:27:26;2.40;99.90
41928;DHT22;27616;51.420;6.788;2022-12-05T07:29:51;2.40;99.90
41928;DHT22;27616;51.420;6.788;2022-12-05T07:32:17;2.40;99.90
41928;DHT22;27616;51.420;6.788;2022-12-05T07:34:43;2.40;99.90
41928;DHT22;27616;51.420;6.788;2022-12-05T07:37:08;2.40;99.90
41928;DHT22;27616;51.420;6.788;2022-12-05T07:39:34;2.50;99.90
41928;DHT22;27616;51.420;6.788;2022-12-05T07:42:00;2.50;99.90
41928;DHT22;27616;51.420;6.788;2022-12-05T07:44:26;2.50;99.90
41928;DHT22;27616;51.420;6.788;2022-12-05T07:46:51;2.40;99.90
41928;DHT22;27616;51.420;6.788;2022-12-05T07:49:17;2.40;99.90
41928;DHT22;27616;51.420;6.788;2022-12-05T07:51:43;2.40;99.90
41928;DHT22;27616;51.420;6.788;2022-12-05T07:54:08;2.40;99.90
41928;DHT22;27616;51.420;6.788;2022-12-05T07:56:34;2.40;99.90
41928;DHT22;27616;51.420;6.788;2022-12-05T07:59:00;2.40;99.90
41928;DHT22;27616;51.420;6.788;2022-12-05T08:01:27;2.30;99.90
41928;DHT22;27616;51.420;6.788;2022-12-05T08:03:55;2.40;99.90
41928;DHT22;27616;51.420;6.788;2022-12-05T08:06:25;2.40;99.90
41928;DHT22;27616;51.420;6.788;2022-12-05T08:08:51;2.30;99.90
41928;DHT22;27616;51.420;6.788;2022-12-05T08:11:22;2.40;99.90
41928;DHT22;27616;51.420;6.788;2022-12-05T08:13:49;2.30;99.90
41928;DHT22;27616;51.420;6.788;2022-12-05T08:16:17;2.30;99.90
41928;DHT22;27616;51.420;6.788;2022-12-05T08:18:43;2.20;99.90
41928;DHT22;27616;51.420;6.788;2022-12-05T08:21:14;2.20;99.90
41928;DHT22;27616;51.420;6.788;2022-12-05T08:23:41;2.10;99.90
41928;DHT22;27616;51.420;6.788;2022-12-05T08:26:34;2.10;99.90
41928;DHT22;27616;51.420;6.788;2022-12-05T08:29:03;2.00;99.90
41928;DHT22;27616;51.420;6.788;2022-12-05T08:31:31;2.10;99.90
41928;DHT22;27616;51.420;6.788;2022-12-05T08:33:59;2.10;99.90
41928;DHT22;27616;51.420;6.788;2022-12-05T08:36:27;2.10;99.90
41928;DHT22;27616;51.420;6.788;2022-12-05T08:38:57;2.00;99.90
41928;DHT22;27616;51.420;6.788;2022-12-05T08:41:23;2.00;99.90
41928;DHT22;27616;51.420;6.788;2022-12-05T08:43:53;1.90;99.90
41928;DHT22;27616;51.420;6.788;2022-12-05T08:46:19;1.90;99.90
41928;DHT22;27616;51.420;6.788;2022-12-05T08:48:45;1.90;99.90
41928;DHT22;27616;51.420;6.788;2022-12-05T08:51:11;1.90;99.90
41928;DHT22;27616;51.420;6.788;2022-12-05T08:53:38;1.90;99.90
41928;DHT22;27616;51.420;6.788;2022-12-05T08:56:06;1.80;99.90
41928;DHT22;27616;51.420;6.788;2022-12-05T08:58:32;1.80;99.90
41928;DHT22;27616;51.420;6.788;2022-12-05T09:01:10;1.70;99.90
41928;DHT22;27616;51.420;6.788;2022-12-05T09:03:36;1.70;99.90
41928;DHT22;27616;51.420;6.788;2022-12-05T09:06:09;1.80;99.90
41928;DHT22;27616;51.420;6.788;2022-12-05T09:08:36;1.70;99.90
41928;DHT22;27616;51.420;6.788;2022-12-05T09:11:14;1.70;99.90
41928;DHT22;27616;51.420;6.788;2022-12-05T09:13:40;1.70;99.90
41928;DHT22;27616;51.420;6.788;2022-12-05T09:16:07;1.80;99.90
41928;DHT22;27616;51.420;6.788;2022-12-05T09:18:33;1.70;99.90
41928;DHT22;27616;51.420;6.788;2022-12-05T09:21:08;1.80;99.90
41928;DHT22;27616;51.420;6.788;2022-12-05T09:23:36;1.70;99.90
41928;DHT22;27616;51.420;6.788;2022-12-05T09:26:03;1.70;99.90
41928;DHT22;27616;51.420;6.788;2022-12-05T09:28:30;1.70;99.90
41928;DHT22;27616;51.420;6.788;2022-12-05T09:31:01;1.80;99.90
41928;DHT22;27616;51.420;6.788;2022-12-05T09:33:29;1.90;99.90
41928;DHT22;27616;51.420;6.788;2022-12-05T09:35:54;1.80;99.90
41928;DHT22;27616;51.420;6.788;2022-12-05T09:38:21;1.90;99.90
41928;DHT22;27616;51.420;6.788;2022-12-05T09:41:02;1.90;99.90
41928;DHT22;27616;51.420;6.788;2022-12-05T09:43:42;2.00;99.90
41928;DHT22;27616;51.420;6.788;2022-12-05T09:46:28;2.00;99.90
41928;DHT22;27616;51.420;6.788;2022-12-05T09:49:02;2.10;99.90
41928;DHT22;27616;51.420;6.788;2022-12-05T09:51:28;2.10;99.90
41928;DHT22;27616;51.420;6.788;2022-12-05T09:53:54;2.00;99.90
41928;DHT22;27616;51.420;6.788;2022-12-05T09:56:26;2.00;99.90
41928;DHT22;27616;51.420;6.788;2022-12-05T09:58:55;2.00;99.90
41928;DHT22;27616;51.420;6.788;2022-12-05T10:04:23;1.90;99.90
41928;DHT22;27616;51.420;6.788;2022-12-05T10:14:55;2.10;99.90
41928;DHT22;27616;51.420;6.788;2022-12-05T10:17:33;2.10;99.90
41928;DHT22;27616;51.420;6.788;2022-12-05T10:20:03;2.10;99.90
41928;DHT22;27616;51.420;6.788;2022-12-05T10:22:43;2.10;99.90
41928;DHT22;27616;51.420;6.788;2022-12-05T10:25:13;2.10;99.90
41928;DHT22;27616;51.420;6.788;2022-12-05T10:27:53;2.10;99.90
41928;DHT22;27616;51.420;6.788;2022-12-05T10:30:22;2.20;99.90
41928;DHT22;27616;51.420;6.788;2022-12-05T10:33:09;2.20;99.90
41928;DHT22;27616;51.420;6.788;2022-12-05T10:35:39;2.20;99.90
41928;DHT22;27616;51.420;6.788;2022-12-05T10:38:18;2.20;99.90
41928;DHT22;27616;51.420;6.788;2022-12-05T10:40:50;2.20;99.90
41928;DHT22;27616;51.420;6.788;2022-12-05T10:43:30;2.20;99.90
41928;DHT22;27616;51.420;6.788;2022-12-05T10:45:57;2.10;99.90
41928;DHT22;27616;51.420;6.788;2022-12-05T10:48:23;2.20;99.90
41928;DHT22;27616;51.420;6.788;2022-12-05T10:50:54;2.30;99.90
41928;DHT22;27616;51.420;6.788;2022-12-05T10:53:25;2.30;99.90
41928;DHT22;27616;51.420;6.788;2022-12-05T10:55:52;2.20;99.90
41928;DHT22;27616;51.420;6.788;2022-12-05T10:58:26;2.20;99.90
41928;DHT22;27616;51.420;6.788;2022-12-05T11:00:55;2.20;99.90
41928;DHT22;27616;51.420;6.788;2022-12-05T11:03:31;2.20;99.90
41928;DHT22;27616;51.420;6.788;2022-12-05T11:06:46;2.20;99.90
41928;DHT22;27616;51.420;6.788;2022-12-05T11:08:55;2.20;99.90
41928;DHT22;27616;51.420;6.788;2022-12-05T11:11:31;2.20;99.90
41928;DHT22;27616;51.420;6.788;2022-12-05T11:14:18;2.30;99.90
41928;DHT22;27616;51.420;6.788;2022-12-05T11:16:54;2.30;99.90
41928;DHT22;27616;51.420;6.788;2022-12-05T11:21:47;2.20;99.90
41928;DHT22;27616;51.420;6.788;2022-12-05T11:24:26;2.10;99.90
41928;DHT22;27616;51.420;6.788;2022-12-05T11:26:53;2.20;99.90
41928;DHT22;27616;51.420;6.788;2022-12-05T11:29:28;2.20;99.90
41928;DHT22;27616;51.420;6.788;2022-12-05T11:31:54;2.30;99.90
41928;DHT22;27616;51.420;6.788;2022-12-05T11:34:23;2.20;99.90
41928;DHT22;27616;51.420;6.788;2022-12-05T11:37:02;2.10;99.90
41928;DHT22;27616;51.420;6.788;2022-12-05T11:39:30;2.00;99.90
41928;DHT22;27616;51.420;6.788;2022-12-05T11:47:27;2.00;99.90
41928;DHT22;27616;51.420;6.788;2022-12-05T11:50:32;1.90;99.90
41928;DHT22;27616;51.420;6.788;2022-12-05T11:53:04;1.90;99.90
41928;DHT22;27616;51.420;6.788;2022-12-05T12:01:22;2.00;99.90
41928;DHT22;27616;51.420;6.788;2022-12-05T12:04:04;2.10;99.90
41928;DHT22;27616;51.420;6.788;2022-12-05T12:16:02;2.00;99.90
41928;DHT22;27616;51.420;6.788;2022-12-05T12:24:40;1.90;99.90
41928;DHT22;27616;51.420;6.788;2022-12-05T12:27:14;1.90;99.90
41928;DHT22;27616;51.420;6.788;2022-12-05T12:30:01;1.90;99.90
41928;DHT22;27616;51.420;6.788;2022-12-05T12:35:49;1.70;99.90
41928;DHT22;27616;51.420;6.788;2022-12-05T12:39:11;1.80;99.90
41928;DHT22;27616;51.420;6.788;2022-12-05T13:02:03;1.70;99.90
41928;DHT22;27616;51.420;6.788;2022-12-05T13:05:00;1.50;99.90
41928;DHT22;27616;51.420;6.788;2022-12-05T13:10:41;1.50;99.90
41928;DHT22;27616;51.420;6.788;2022-12-05T13:13:19;1.50;99.90
41928;DHT22;27616;51.420;6.788;2022-12-05T13:15:54;1.60;99.90
41928;DHT22;27616;51.420;6.788;2022-12-05T13:18:25;1.50;99.90
41928;DHT22;27616;51.420;6.788;2022-12-05T13:20:53;1.60;99.90
41928;DHT22;27616;51.420;6.788;2022-12-05T13:23:32;1.70;99.90
41928;DHT22;27616;51.420;6.788;2022-12-05T13:25:59;1.80;99.90
41928;DHT22;27616;51.420;6.788;2022-12-05T13:30:58;1.50;99.90
41928;DHT22;27616;51.420;6.788;2022-12-05T13:33:45;1.50;99.90
41928;DHT22;27616;51.420;6.788;2022-12-05T13:36:21;1.40;99.90
41928;DHT22;27616;51.420;6.788;2022-12-05T13:39:18;1.40;99.90
41928;DHT22;27616;51.420;6.788;2022-12-05T13:42:04;1.50;99.90
41928;DHT22;27616;51.420;6.788;2022-12-05T13:44:48;1.60;99.90
41928;DHT22;27616;51.420;6.788;2022-12-05T13:50:09;1.70;99.90
41928;DHT22;27616;51.420;6.788;2022-12-05T13:52:50;1.80;99.90
41928;DHT22;27616;51.420;6.788;2022-12-05T13:55:26;1.70;99.90
41928;DHT22;27616;51.420;6.788;2022-12-05T13:57:56;1.70;99.90
41928;DHT22;27616;51.420;6.788;2022-12-05T14:00:30;1.60;99.90
41928;DHT22;27616;51.420;6.788;2022-12-05T14:02:58;1.60;99.90
41928;DHT22;27616;51.420;6.788;2022-12-05T14:05:36;1.70;99.90
41928;DHT22;27616;51.420;6.788;2022-12-05T14:15:44;1.70;99.90
41928;DHT22;27616;51.420;6.788;2022-12-05T14:23:38;1.50;99.90
41928;DHT22;27616;51.420;6.788;2022-12-05T14:26:13;1.30;99.90
41928;DHT22;27616;51.420;6.788;2022-12-05T14:31:50;1.00;99.90
41928;DHT22;27616;51.420;6.788;2022-12-05T14:34:28;0.90;99.90
41928;DHT22;27616;51.420;6.788;2022-12-05T14:39:43;0.90;99.90
41928;DHT22;27616;51.420;6.788;2022-12-05T14:44:46;0.90;99.90
41928;DHT22;27616;51.420;6.788;2022-12-05T14:47:21;0.90;99.90
41928;DHT22;27616;51.420;6.788;2022-12-05T14:52:40;0.80;99.90
41928;DHT22;27616;51.420;6.788;2022-12-05T14:55:11;0.70;99.90
41928;DHT22;27616;51.420;6.788;2022-12-05T14:57:47;0.80;99.90
41928;DHT22;27616;51.420;6.788;2022-12-05T15:00:21;0.70;99.90
41928;DHT22;27616;51.420;6.788;2022-12-05T15:02:50;0.70;99.90
41928;DHT22;27616;51.420;6.788;2022-12-05T15:05:24;0.70;99.90
41928;DHT22;27616;51.420;6.788;2022-12-05T15:07:52;0.80;99.90
41928;DHT22;27616;51.420;6.788;2022-12-05T15:10:27;0.80;99.90
41928;DHT22;27616;51.420;6.788;2022-12-05T15:12:59;0.90;99.90
41928;DHT22;27616;51.420;6.788;2022-12-05T15:15:42;0.90;99.90
41928;DHT22;27616;51.420;6.788;2022-12-05T15:18:33;0.90;99.90
41928;DHT22;27616;51.420;6.788;2022-12-05T15:23:55;1.00;99.90
41928;DHT22;27616;51.420;6.788;2022-12-05T15:26:25;1.00;99.90
41928;DHT22;27616;51.420;6.788;2022-12-05T15:29:11;1.00;99.90
41928;DHT22;27616;51.420;6.788;2022-12-05T15:31:52;1.00;99.90
41928;DHT22;27616;51.420;6.788;2022-12-05T15:39:54;0.90;99.90
41928;DHT22;27616;51.420;6.788;2022-12-05T15:42:35;1.00;99.90
41928;DHT22;27616;51.420;6.788;2022-12-05T15:47:37;1.00;99.90
41928;DHT22;27616;51.420;6.788;2022-12-05T15:50:03;1.00;99.90
41928;DHT22;27616;51.420;6.788;2022-12-05T15:52:37;1.00;99.90
41928;DHT22;27616;51.420;6.788;2022-12-05T15:55:10;1.00;99.90
41928;DHT22;27616;51.420;6.788;2022-12-05T15:57:47;1.00;99.90
41928;DHT22;27616;51.420;6.788;2022-12-05T16:00:17;1.00;99.90
41928;DHT22;27616;51.420;6.788;2022-12-05T16:03:05;1.00;99.90
41928;DHT22;27616;51.420;6.788;2022-12-05T16:05:34;1.00;99.90
41928;DHT22;27616;51.420;6.788;2022-12-05T16:08:04;1.00;99.90
41928;DHT22;27616;51.420;6.788;2022-12-05T16:10:31;1.00;99.90
41928;DHT22;27616;51.420;6.788;2022-12-05T16:13:06;1.00;99.90
41928;DHT22;27616;51.420;6.788;2022-12-05T16:15:35;1.00;99.90
41928;DHT22;27616;51.420;6.788;2022-12-05T16:18:03;1.00;99.90
41928;DHT22;27616;51.420;6.788;2022-12-05T16:20:35;1.10;99.90
41928;DHT22;27616;51.420;6.788;2022-12-05T16:23:04;1.00;99.90
41928;DHT22;27616;51.420;6.788;2022-12-05T16:25:35;1.00;99.90
41928;DHT22;27616;51.420;6.788;2022-12-05T16:30:33;1.00;99.90
41928;DHT22;27616;51.420;6.788;2022-12-05T16:33:02;1.00;99.90
41928;DHT22;27616;51.420;6.788;2022-12-05T16:35:37;1.00;99.90
41928;DHT22;27616;51.420;6.788;2022-12-05T16:38:21;1.00;99.90
41928;DHT22;27616;51.420;6.788;2022-12-05T16:45:46;1.00;99.90
41928;DHT22;27616;51.420;6.788;2022-12-05T16:50:51;1.00;99.90
41928;DHT22;27616;51.420;6.788;2022-12-05T16:53:27;1.00;99.90
41928;DHT22;27616;51.420;6.788;2022-12-05T16:55:54;0.90;99.90
41928;DHT22;27616;51.420;6.788;2022-12-05T16:58:24;1.00;99.90
41928;DHT22;27616;51.420;6.788;2022-12-05T17:00:51;0.90;99.90
41928;DHT22;27616;51.420;6.788;2022-12-05T17:03:17;1.00;99.90
41928;DHT22;27616;51.420;6.788;2022-12-05T17:05:43;0.90;99.90
41928;DHT22;27616;51.420;6.788;2022-12-05T17:08:09;0.90;99.90
41928;DHT22;27616;51.420;6.788;2022-12-05T17:10:35;0.90;99.90
41928;DHT22;27616;51.420;6.788;2022-12-05T17:13:01;0.90;99.90
41928;DHT22;27616;51.420;6.788;2022-12-05T17:15:28;0.90;99.90
41928;DHT22;27616;51.420;6.788;2022-12-05T17:17:54;0.90;99.90
41928;DHT22;27616;51.420;6.788;2022-12-05T17:20:20;0.90;99.90
41928;DHT22;27616;51.420;6.788;2022-12-05T17:22:46;0.90;99.90
41928;DHT22;27616;51.420;6.788;2022-12-05T17:25:30;0.80;99.90
41928;DHT22;27616;51.420;6.788;2022-12-05T17:27:57;0.90;99.90
41928;DHT22;27616;51.420;6.788;2022-12-05T17:30:24;0.80;99.90
41928;DHT22;27616;51.420;6.788;2022-12-05T17:32:49;0.80;99.90
41928;DHT22;27616;51.420;6.788;2022-12-05T17:35:17;0.90;99.90
41928;DHT22;27616;51.420;6.788;2022-12-05T17:37:43;0.90;99.90
41928;DHT22;27616;51.420;6.788;2022-12-05T17:40:09;0.80;99.90
41928;DHT22;27616;51.420;6.788;2022-12-05T17:42:35;0.80;99.90
41928;DHT22;27616;51.420;6.788;2022-12-05T17:45:01;0.90;99.90
41928;DHT22;27616;51.420;6.788;2022-12-05T17:47:26;0.90;99.90
41928;DHT22;27616;51.420;6.788;2022-12-05T17:49:55;0.90;99.90
41928;DHT22;27616;51.420;6.788;2022-12-05T17:52:21;0.90;99.90
41928;DHT22;27616;51.420;6.788;2022-12-05T17:54:47;0.90;99.90
41928;DHT22;27616;51.420;6.788;2022-12-05T17:57:13;0.90;99.90
41928;DHT22;27616;51.420;6.788;2022-12-05T17:59:38;0.90;99.90
41928;DHT22;27616;51.420;6.788;2022-12-05T18:02:05;0.90;99.90
41928;DHT22;27616;51.420;6.788;2022-12-05T18:04:31;0.90;99.90
41928;DHT22;27616;51.420;6.788;2022-12-05T18:06:56;0.90;99.90
41928;DHT22;27616;51.420;6.788;2022-12-05T18:09:22;0.90;99.90
41928;DHT22;27616;51.420;6.788;2022-12-05T18:11:48;0.90;99.90
41928;DHT22;27616;51.420;6.788;2022-12-05T18:14:14;0.90;99.90
41928;DHT22;27616;51.420;6.788;2022-12-05T18:16:39;0.90;99.90
41928;DHT22;27616;51.420;6.788;2022-12-05T18:19:05;0.90;99.90
41928;DHT22;27616;51.420;6.788;2022-12-05T18:21:33;0.90;99.90
41928;DHT22;27616;51.420;6.788;2022-12-05T18:23:58;1.00;99.90
41928;DHT22;27616;51.420;6.788;2022-12-05T18:26:24;1.00;99.90
41928;DHT22;27616;51.420;6.788;2022-12-05T18:28:50;1.00;99.90
41928;DHT22;27616;51.420;6.788;2022-12-05T18:31:18;1.00;99.90
41928;DHT22;27616;51.420;6.788;2022-12-05T18:33:45;1.00;99.90
41928;DHT22;27616;51.420;6.788;2022-12-05T18:36:13;0.90;99.90
41928;DHT22;27616;51.420;6.788;2022-12-05T18:38:40;1.00;99.90
41928;DHT22;27616;51.420;6.788;2022-12-05T18:41:08;1.00;99.90